sensor_id;sensor_type;location;lat;lon;timestamp;pressure;altitude;pressure_sealevel;temperature;humidity
49341;BME280;35209;51.050;13.678;2023-05-09T00:02:03;100702.50;;;9.14;60.09
49341;BME280;35209;51.050;13.678;2023-05-09T00:07:05;100701.75;;;9.02;60.55
49341;BME280;35209;51.050;13.678;2023-05-09T00:12:07;100691.94;;;9.18;58.68
49341;BME280;35209;51.050;13.678;2023-05-09T00:17:10;100691.00;;;9.21;58.75
49341;BME280;35209;51.050;13.678;2023-05-09T00:22:18;100700.84;;;9.08;59.40
49341;BME280;35209;51.050;13.678;2023-05-09T00:27:21;100699.16;;;9.02;59.78
49341;BME280;35209;51.050;13.678;2023-05-09T00:32:23;100689.56;;;9.01;59.68
49341;BME280;35209;51.050;13.678;2023-05-09T00:37:27;100684.69;;;8.77;60.95
49341;BME280;35209;51.050;13.678;2023-05-09T00:42:29;100682.00;;;8.81;59.70
49341;BME280;35209;51.050;13.678;2023-05-09T00:47:33;100683.75;;;8.79;59.44
49341;BME280;35209;51.050;13.678;2023-05-09T00:52:34;100682.13;;;8.71;60.63
49341;BME280;35209;51.050;13.678;2023-05-09T00:57:36;100682.13;;;8.72;60.12
49341;BME280;35209;51.050;13.678;2023-05-09T01:02:43;100678.75;;;8.64;60.10
49341;BME280;35209;51.050;13.678;2023-05-09T01:13:17;100661.59;;;8.39;61.60
49341;BME280;35209;51.050;13.678;2023-05-09T01:24:24;100653.69;;;8.43;61.18
49341;BME280;35209;51.050;13.678;2023-05-09T01:29:41;100652.88;;;8.35;61.82
49341;BME280;35209;51.050;13.678;2023-05-09T01:34:46;100646.00;;;8.28;62.09
49341;BME280;35209;51.050;13.678;2023-05-09T01:39:52;100645.44;;;8.01;63.21
49341;BME280;35209;51.050;13.678;2023-05-09T01:44:57;100645.59;;;7.86;63.90
49341;BME280;35209;51.050;13.678;2023-05-09T01:50:00;100640.31;;;7.91;63.85
49341;BME280;35209;51.050;13.678;2023-05-09T01:55:04;100636.84;;;7.87;64.36
49341;BME280;35209;51.050;13.678;2023-05-09T02:00:07;100647.22;;;7.98;63.82
49341;BME280;35209;51.050;13.678;2023-05-09T02:05:17;100632.50;;;7.86;64.45
49341;BME280;35209;51.050;13.678;2023-05-09T02:10:19;100629.03;;;7.86;64.54
49341;BME280;35209;51.050;13.678;2023-05-09T02:15:23;100630.09;;;7.68;65.22
49341;BME280;35209;51.050;13.678;2023-05-09T02:20:25;100637.00;;;7.75;64.64
49341;BME280;35209;51.050;13.678;2023-05-09T02:25:26;100624.94;;;7.62;65.16
49341;BME280;35209;51.050;13.678;2023-05-09T02:30:33;100626.72;;;7.55;66.35
49341;BME280;35209;51.050;13.678;2023-05-09T02:35:39;100620.06;;;7.23;67.52
49341;BME280;35209;51.050;13.678;2023-05-09T02:40:42;100612.16;;;7.28;68.07
49341;BME280;35209;51.050;13.678;2023-05-09T02:45:46;100613.91;;;7.30;67.83
49341;BME280;35209;51.050;13.678;2023-05-09T02:50:48;100614.75;;;7.29;67.18
49341;BME280;35209;51.050;13.678;2023-05-09T02:55:50;100605.88;;;7.47;66.80
49341;BME280;35209;51.050;13.678;2023-05-09T03:00:52;100615.53;;;7.39;66.78
49341;BME280;35209;51.050;13.678;2023-05-09T03:05:53;100615.06;;;6.96;68.85
49341;BME280;35209;51.050;13.678;2023-05-09T03:10:55;100616.09;;;6.73;70.71
49341;BME280;35209;51.050;13.678;2023-05-09T03:15:59;100615.34;;;6.53;71.37
49341;BME280;35209;51.050;13.678;2023-05-09T03:21:01;100618.84;;;6.46;71.35
49341;BME280;35209;51.050;13.678;2023-05-09T03:26:04;100614.53;;;6.46;71.61
49341;BME280;35209;51.050;13.678;2023-05-09T03:31:06;100608.44;;;6.44;71.74
49341;BME280;35209;51.050;13.678;2023-05-09T03:36:08;100599.78;;;6.36;71.84
49341;BME280;35209;51.050;13.678;2023-05-09T03:41:14;100593.63;;;6.48;71.25
49341;BME280;35209;51.050;13.678;2023-05-09T03:46:19;100586.63;;;6.53;70.98
49341;BME280;35209;51.050;13.678;2023-05-09T03:51:22;100591.63;;;6.83;69.25
49341;BME280;35209;51.050;13.678;2023-05-09T03:56:24;100585.63;;;6.74;69.51
49341;BME280;35209;51.050;13.678;2023-05-09T04:01:26;100583.91;;;6.70;69.00
49341;BME280;35209;51.050;13.678;2023-05-09T04:06:30;100590.03;;;6.64;69.55
49341;BME280;35209;51.050;13.678;2023-05-09T04:11:34;100595.25;;;6.60;70.01
49341;BME280;35209;51.050;13.678;2023-05-09T04:16:37;100593.53;;;6.65;69.65
49341;BME280;35209;51.050;13.678;2023-05-09T04:21:39;100592.38;;;6.98;68.74
49341;BME280;35209;51.050;13.678;2023-05-09T04:26:41;100585.31;;;7.07;68.16
49341;BME280;35209;51.050;13.678;2023-05-09T04:31:47;100586.09;;;7.19;67.38
49341;BME280;35209;51.050;13.678;2023-05-09T04:36:50;100586.72;;;7.48;65.21
49341;BME280;35209;51.050;13.678;2023-05-09T04:41:53;100578.19;;;7.28;67.44
49341;BME280;35209;51.050;13.678;2023-05-09T04:46:55;100571.06;;;7.44;66.71
49341;BME280;35209;51.050;13.678;2023-05-09T04:51:58;100580.28;;;7.74;64.08
49341;BME280;35209;51.050;13.678;2023-05-09T04:57:00;100567.19;;;7.77;64.61
49341;BME280;35209;51.050;13.678;2023-05-09T05:02:18;100558.50;;;7.75;64.81
49341;BME280;35209;51.050;13.678;2023-05-09T05:07:23;100569.59;;;7.94;64.81
49341;BME280;35209;51.050;13.678;2023-05-09T05:12:25;100563.34;;;8.07;64.10
49341;BME280;35209;51.050;13.678;2023-05-09T05:17:27;100559.44;;;8.39;62.79
49341;BME280;35209;51.050;13.678;2023-05-09T05:22:32;100556.50;;;8.58;61.25
49341;BME280;35209;51.050;13.678;2023-05-09T05:27:34;100551.13;;;8.69;61.78
49341;BME280;35209;51.050;13.678;2023-05-09T05:32:36;100559.22;;;9.06;59.78
49341;BME280;35209;51.050;13.678;2023-05-09T05:37:38;100553.03;;;9.10;61.01
49341;BME280;35209;51.050;13.678;2023-05-09T05:42:41;100554.28;;;9.38;58.80
49341;BME280;35209;51.050;13.678;2023-05-09T05:47:44;100556.81;;;9.42;59.99
49341;BME280;35209;51.050;13.678;2023-05-09T05:52:47;100549.94;;;10.23;57.06
49341;BME280;35209;51.050;13.678;2023-05-09T05:57:51;100537.69;;;10.97;53.39
49341;BME280;35209;51.050;13.678;2023-05-09T06:02:53;100528.56;;;11.44;51.93
49341;BME280;35209;51.050;13.678;2023-05-09T06:08:21;100525.13;;;12.04;49.27
49341;BME280;35209;51.050;13.678;2023-05-09T06:13:23;100526.56;;;12.43;47.63
49341;BME280;35209;51.050;13.678;2023-05-09T06:18:30;100515.31;;;12.91;45.83
49341;BME280;35209;51.050;13.678;2023-05-09T06:23:32;100514.28;;;13.21;45.45
49341;BME280;35209;51.050;13.678;2023-05-09T06:28:34;100512.72;;;13.41;45.85
49341;BME280;35209;51.050;13.678;2023-05-09T06:33:36;100506.63;;;13.87;43.38
49341;BME280;35209;51.050;13.678;2023-05-09T06:38:37;100508.91;;;13.49;43.02
49341;BME280;35209;51.050;13.678;2023-05-09T06:43:39;100501.72;;;13.53;43.79
49341;BME280;35209;51.050;13.678;2023-05-09T06:48:41;100501.41;;;13.62;42.96
49341;BME280;35209;51.050;13.678;2023-05-09T06:53:42;100481.13;;;13.62;43.25
49341;BME280;35209;51.050;13.678;2023-05-09T06:58:44;100477.25;;;13.73;43.04
49341;BME280;35209;51.050;13.678;2023-05-09T07:03:46;100477.59;;;13.63;42.50
49341;BME280;35209;51.050;13.678;2023-05-09T07:08:48;100457.22;;;13.89;42.84
49341;BME280;35209;51.050;13.678;2023-05-09T07:13:50;100455.41;;;13.91;42.20
49341;BME280;35209;51.050;13.678;2023-05-09T07:18:52;100456.28;;;14.13;43.24
49341;BME280;35209;51.050;13.678;2023-05-09T07:23:53;100455.28;;;14.16;42.16
49341;BME280;35209;51.050;13.678;2023-05-09T07:28:55;100459.88;;;14.33;41.68
49341;BME280;35209;51.050;13.678;2023-05-09T07:33:56;100439.97;;;14.24;42.39
49341;BME280;35209;51.050;13.678;2023-05-09T07:38:58;100443.25;;;14.31;42.35
49341;BME280;35209;51.050;13.678;2023-05-09T07:44:00;100424.94;;;14.47;42.64
49341;BME280;35209;51.050;13.678;2023-05-09T07:49:02;100418.91;;;14.65;41.74
49341;BME280;35209;51.050;13.678;2023-05-09T07:54:04;100418.19;;;14.61;42.03
49341;BME280;35209;51.050;13.678;2023-05-09T07:59:05;100407.63;;;14.61;41.76
49341;BME280;35209;51.050;13.678;2023-05-09T08:04:07;100399.41;;;14.88;41.85
49341;BME280;35209;51.050;13.678;2023-05-09T08:09:10;100403.91;;;15.06;40.02
49341;BME280;35209;51.050;13.678;2023-05-09T08:14:11;100404.22;;;14.99;40.13
49341;BME280;35209;51.050;13.678;2023-05-09T08:19:15;100399.81;;;14.79;42.94
49341;BME280;35209;51.050;13.678;2023-05-09T08:24:17;100391.81;;;15.20;40.76
49341;BME280;35209;51.050;13.678;2023-05-09T08:29:19;100390.84;;;15.41;41.13
49341;BME280;35209;51.050;13.678;2023-05-09T08:34:20;100382.53;;;15.49;38.47
49341;BME280;35209;51.050;13.678;2023-05-09T08:39:22;100371.75;;;15.72;40.39
49341;BME280;35209;51.050;13.678;2023-05-09T08:44:25;100361.66;;;16.17;38.63
49341;BME280;35209;51.050;13.678;2023-05-09T08:49:27;100356.72;;;16.09;38.54
49341;BME280;35209;51.050;13.678;2023-05-09T08:54:29;100354.38;;;16.55;37.44
49341;BME280;35209;51.050;13.678;2023-05-09T08:59:31;100346.50;;;16.88;37.59
49341;BME280;35209;51.050;13.678;2023-05-09T09:04:35;100337.97;;;16.99;37.58
49341;BME280;35209;51.050;13.678;2023-05-09T09:09:38;100330.81;;;17.17;37.63
49341;BME280;35209;51.050;13.678;2023-05-09T09:14:49;100343.72;;;17.40;36.86
49341;BME280;35209;51.050;13.678;2023-05-09T09:19:58;100333.91;;;17.56;36.39
49341;BME280;35209;51.050;13.678;2023-05-09T09:25:02;100332.03;;;17.27;35.39
49341;BME280;35209;51.050;13.678;2023-05-09T09:30:08;100341.81;;;17.42;35.64
49341;BME280;35209;51.050;13.678;2023-05-09T09:35:10;100340.97;;;17.89;35.59
49341;BME280;35209;51.050;13.678;2023-05-09T09:40:12;100335.34;;;18.09;34.18
49341;BME280;35209;51.050;13.678;2023-05-09T09:45:16;100332.25;;;18.17;34.00
49341;BME280;35209;51.050;13.678;2023-05-09T09:50:19;100329.91;;;18.27;34.16
49341;BME280;35209;51.050;13.678;2023-05-09T09:55:23;100328.44;;;18.07;35.30
49341;BME280;35209;51.050;13.678;2023-05-09T10:00:26;100319.63;;;18.21;34.58
49341;BME280;35209;51.050;13.678;2023-05-09T10:05:29;100323.25;;;18.64;33.72
49341;BME280;35209;51.050;13.678;2023-05-09T10:10:35;100328.16;;;18.86;34.28
49341;BME280;35209;51.050;13.678;2023-05-09T10:15:37;100312.25;;;18.70;33.63
49341;BME280;35209;51.050;13.678;2023-05-09T10:20:55;100294.75;;;18.95;32.91
49341;BME280;35209;51.050;13.678;2023-05-09T10:26:22;100296.34;;;18.69;32.56
49341;BME280;35209;51.050;13.678;2023-05-09T10:31:28;100291.38;;;19.48;33.26
49341;BME280;35209;51.050;13.678;2023-05-09T10:36:30;100282.50;;;19.62;32.25
49341;BME280;35209;51.050;13.678;2023-05-09T10:41:33;100272.19;;;19.14;32.64
49341;BME280;35209;51.050;13.678;2023-05-09T10:46:37;100262.28;;;19.58;33.20
49341;BME280;35209;51.050;13.678;2023-05-09T10:51:39;100261.59;;;19.69;33.19
49341;BME280;35209;51.050;13.678;2023-05-09T10:56:41;100251.94;;;19.80;31.96
49341;BME280;35209;51.050;13.678;2023-05-09T11:01:42;100239.53;;;20.32;31.02
49341;BME280;35209;51.050;13.678;2023-05-09T11:06:48;100235.78;;;20.09;29.94
49341;BME280;35209;51.050;13.678;2023-05-09T11:11:53;100229.19;;;20.91;30.95
49341;BME280;35209;51.050;13.678;2023-05-09T11:16:56;100214.66;;;20.31;29.61
49341;BME280;35209;51.050;13.678;2023-05-09T11:22:00;100206.56;;;20.20;28.59
49341;BME280;35209;51.050;13.678;2023-05-09T11:27:18;100194.56;;;20.00;29.36
49341;BME280;35209;51.050;13.678;2023-05-09T11:32:21;100189.75;;;20.95;29.38
49341;BME280;35209;51.050;13.678;2023-05-09T11:37:23;100175.66;;;20.80;29.04
49341;BME280;35209;51.050;13.678;2023-05-09T11:42:26;100162.34;;;20.29;29.91
49341;BME280;35209;51.050;13.678;2023-05-09T11:47:28;100165.31;;;19.99;29.14
49341;BME280;35209;51.050;13.678;2023-05-09T11:52:31;100158.84;;;20.41;29.00
49341;BME280;35209;51.050;13.678;2023-05-09T11:57:40;100151.13;;;20.62;29.32
49341;BME280;35209;51.050;13.678;2023-05-09T12:02:42;100134.03;;;20.39;29.08
49341;BME280;35209;51.050;13.678;2023-05-09T12:07:45;100132.88;;;20.56;28.90
49341;BME280;35209;51.050;13.678;2023-05-09T12:12:49;100125.84;;;20.04;28.64
49341;BME280;35209;51.050;13.678;2023-05-09T12:18:04;100114.50;;;20.51;30.54
49341;BME280;35209;51.050;13.678;2023-05-09T12:23:08;100106.78;;;20.72;27.89
49341;BME280;35209;51.050;13.678;2023-05-09T12:28:11;100103.31;;;21.07;28.99
49341;BME280;35209;51.050;13.678;2023-05-09T12:33:13;100103.66;;;21.02;26.23
49341;BME280;35209;51.050;13.678;2023-05-09T12:38:20;100098.56;;;20.99;27.58
49341;BME280;35209;51.050;13.678;2023-05-09T12:43:22;100094.13;;;20.50;28.75
49341;BME280;35209;51.050;13.678;2023-05-09T12:48:23;100089.09;;;20.82;26.99
49341;BME280;35209;51.050;13.678;2023-05-09T12:53:26;100082.44;;;20.88;28.03
49341;BME280;35209;51.050;13.678;2023-05-09T12:58:32;100082.09;;;20.69;27.06
49341;BME280;35209;51.050;13.678;2023-05-09T13:03:34;100067.31;;;20.76;26.88
49341;BME280;35209;51.050;13.678;2023-05-09T13:08:39;100059.41;;;20.50;25.94
49341;BME280;35209;51.050;13.678;2023-05-09T13:13:41;100051.56;;;20.47;27.91
49341;BME280;35209;51.050;13.678;2023-05-09T13:18:43;100045.25;;;20.61;27.26
49341;BME280;35209;51.050;13.678;2023-05-09T13:23:44;100028.66;;;20.92;27.80
49341;BME280;35209;51.050;13.678;2023-05-09T13:28:46;100025.38;;;20.89;27.26
49341;BME280;35209;51.050;13.678;2023-05-09T13:33:49;100004.41;;;20.48;28.87
49341;BME280;35209;51.050;13.678;2023-05-09T13:38:52;99999.63;;;20.27;27.99
49341;BME280;35209;51.050;13.678;2023-05-09T13:43:54;99994.13;;;20.05;26.62
49341;BME280;35209;51.050;13.678;2023-05-09T13:48:55;99990.91;;;20.12;29.66
49341;BME280;35209;51.050;13.678;2023-05-09T13:53:57;99980.88;;;20.16;28.63
49341;BME280;35209;51.050;13.678;2023-05-09T13:58:59;99973.22;;;19.99;28.54
49341;BME280;35209;51.050;13.678;2023-05-09T14:04:00;99952.34;;;19.80;29.72
49341;BME280;35209;51.050;13.678;2023-05-09T14:09:03;99948.91;;;19.90;29.17
49341;BME280;35209;51.050;13.678;2023-05-09T14:14:04;99932.34;;;19.61;29.46
49341;BME280;35209;51.050;13.678;2023-05-09T14:19:06;99937.53;;;19.76;28.06
49341;BME280;35209;51.050;13.678;2023-05-09T14:24:08;99929.84;;;19.84;30.02
49341;BME280;35209;51.050;13.678;2023-05-09T14:29:10;99929.72;;;19.47;30.54
49341;BME280;35209;51.050;13.678;2023-05-09T14:34:12;99915.78;;;19.44;30.26
49341;BME280;35209;51.050;13.678;2023-05-09T14:39:14;99911.00;;;19.49;29.96
49341;BME280;35209;51.050;13.678;2023-05-09T14:44:16;99906.50;;;19.49;31.16
49341;BME280;35209;51.050;13.678;2023-05-09T14:49:17;99894.78;;;19.39;30.82
49341;BME280;35209;51.050;13.678;2023-05-09T14:54:19;99891.75;;;19.56;30.95
49341;BME280;35209;51.050;13.678;2023-05-09T14:59:21;99881.88;;;19.46;30.64
49341;BME280;35209;51.050;13.678;2023-05-09T15:04:26;99871.09;;;19.47;31.72
49341;BME280;35209;51.050;13.678;2023-05-09T15:09:31;99869.31;;;19.35;31.79
49341;BME280;35209;51.050;13.678;2023-05-09T15:14:35;99853.22;;;19.24;31.80
49341;BME280;35209;51.050;13.678;2023-05-09T15:20:13;99862.06;;;19.37;31.26
49341;BME280;35209;51.050;13.678;2023-05-09T15:25:24;99861.41;;;19.33;31.74
49341;BME280;35209;51.050;13.678;2023-05-09T15:30:26;99848.94;;;19.34;31.98
49341;BME280;35209;51.050;13.678;2023-05-09T15:35:28;99846.91;;;19.25;32.21
49341;BME280;35209;51.050;13.678;2023-05-09T15:40:29;99848.00;;;19.84;32.08
49341;BME280;35209;51.050;13.678;2023-05-09T15:45:31;99843.81;;;20.87;30.03
49341;BME280;35209;51.050;13.678;2023-05-09T15:50:33;99830.94;;;20.92;30.44
49341;BME280;35209;51.050;13.678;2023-05-09T15:55:35;99833.75;;;21.13;31.15
49341;BME280;35209;51.050;13.678;2023-05-09T16:00:39;99823.03;;;20.69;31.85
49341;BME280;35209;51.050;13.678;2023-05-09T16:05:41;99817.69;;;20.09;32.50
49341;BME280;35209;51.050;13.678;2023-05-09T16:10:43;99822.69;;;19.53;33.06
49341;BME280;35209;51.050;13.678;2023-05-09T16:15:49;99811.38;;;19.50;33.58
49341;BME280;35209;51.050;13.678;2023-05-09T16:20:51;99813.78;;;19.16;34.02
49341;BME280;35209;51.050;13.678;2023-05-09T16:25:53;99800.78;;;18.99;34.39
49341;BME280;35209;51.050;13.678;2023-05-09T16:30:54;99802.84;;;18.82;34.65
49341;BME280;35209;51.050;13.678;2023-05-09T16:35:56;99793.25;;;18.80;34.77
49341;BME280;35209;51.050;13.678;2023-05-09T16:40:59;99798.06;;;18.87;35.10
49341;BME280;35209;51.050;13.678;2023-05-09T16:46:01;99784.38;;;18.66;35.11
49341;BME280;35209;51.050;13.678;2023-05-09T16:51:03;99775.44;;;18.67;34.69
49341;BME280;35209;51.050;13.678;2023-05-09T16:56:04;99767.22;;;18.45;36.06
49341;BME280;35209;51.050;13.678;2023-05-09T17:01:08;99770.50;;;18.36;35.38
49341;BME280;35209;51.050;13.678;2023-05-09T17:06:10;99765.50;;;18.31;34.80
49341;BME280;35209;51.050;13.678;2023-05-09T17:11:11;99763.91;;;18.29;34.44
49341;BME280;35209;51.050;13.678;2023-05-09T17:16:13;99755.91;;;18.16;34.41
49341;BME280;35209;51.050;13.678;2023-05-09T17:21:15;99748.44;;;18.08;35.10
49341;BME280;35209;51.050;13.678;2023-05-09T17:26:17;99750.53;;;17.90;35.85
49341;BME280;35209;51.050;13.678;2023-05-09T17:31:19;99738.88;;;17.79;35.78
49341;BME280;35209;51.050;13.678;2023-05-09T17:36:20;99741.81;;;17.88;35.29
49341;BME280;35209;51.050;13.678;2023-05-09T17:41:22;99738.81;;;17.66;35.71
49341;BME280;35209;51.050;13.678;2023-05-09T17:46:24;99738.00;;;17.51;36.87
49341;BME280;35209;51.050;13.678;2023-05-09T17:51:25;99727.94;;;17.56;36.45
49341;BME280;35209;51.050;13.678;2023-05-09T17:56:27;99721.63;;;17.45;36.79
49341;BME280;35209;51.050;13.678;2023-05-09T18:01:29;99729.25;;;17.36;37.25
49341;BME280;35209;51.050;13.678;2023-05-09T18:06:30;99726.25;;;17.14;37.17
49341;BME280;35209;51.050;13.678;2023-05-09T18:11:33;99723.06;;;17.09;37.73
49341;BME280;35209;51.050;13.678;2023-05-09T18:16:34;99714.16;;;16.81;38.30
49341;BME280;35209;51.050;13.678;2023-05-09T18:21:36;99709.28;;;16.59;38.62
49341;BME280;35209;51.050;13.678;2023-05-09T18:26:41;99719.72;;;16.62;38.34
49341;BME280;35209;51.050;13.678;2023-05-09T18:31:43;99709.69;;;16.39;38.66
49341;BME280;35209;51.050;13.678;2023-05-09T18:36:45;99711.16;;;16.29;39.31
49341;BME280;35209;51.050;13.678;2023-05-09T18:41:52;99707.09;;;16.23;38.83
49341;BME280;35209;51.050;13.678;2023-05-09T18:47:01;99707.34;;;16.04;39.36
49341;BME280;35209;51.050;13.678;2023-05-09T18:52:22;99705.97;;;15.97;40.00
49341;BME280;35209;51.050;13.678;2023-05-09T18:57:27;99710.13;;;15.87;41.09
49341;BME280;35209;51.050;13.678;2023-05-09T19:02:28;99701.03;;;15.77;40.90
49341;BME280;35209;51.050;13.678;2023-05-09T19:07:30;99692.22;;;15.76;40.62
49341;BME280;35209;51.050;13.678;2023-05-09T19:12:32;99685.72;;;15.66;40.81
49341;BME280;35209;51.050;13.678;2023-05-09T19:17:43;99678.22;;;15.58;41.60
49341;BME280;35209;51.050;13.678;2023-05-09T19:22:45;99688.47;;;15.49;41.90
49341;BME280;35209;51.050;13.678;2023-05-09T19:27:51;99683.44;;;15.44;42.34
49341;BME280;35209;51.050;13.678;2023-05-09T19:32:53;99686.44;;;15.38;42.31
49341;BME280;35209;51.050;13.678;2023-05-09T19:37:55;99682.69;;;15.26;42.61
49341;BME280;35209;51.050;13.678;2023-05-09T19:42:56;99671.28;;;15.10;43.13
49341;BME280;35209;51.050;13.678;2023-05-09T19:47:58;99671.00;;;14.99;43.70
49341;BME280;35209;51.050;13.678;2023-05-09T19:53:00;99672.78;;;14.82;44.29
49341;BME280;35209;51.050;13.678;2023-05-09T19:58:01;99675.09;;;14.73;43.98
49341;BME280;35209;51.050;13.678;2023-05-09T20:03:03;99675.16;;;14.55;45.12
49341;BME280;35209;51.050;13.678;2023-05-09T20:08:05;99669.69;;;14.58;45.94
49341;BME280;35209;51.050;13.678;2023-05-09T20:13:07;99661.91;;;14.55;45.26
49341;BME280;35209;51.050;13.678;2023-05-09T20:18:09;99663.56;;;14.41;45.51
49341;BME280;35209;51.050;13.678;2023-05-09T20:23:10;99654.78;;;14.40;46.13
49341;BME280;35209;51.050;13.678;2023-05-09T20:28:12;99645.34;;;14.19;46.16
49341;BME280;35209;51.050;13.678;2023-05-09T20:33:16;99650.63;;;14.19;47.02
49341;BME280;35209;51.050;13.678;2023-05-09T20:38:19;99638.84;;;14.08;47.14
49341;BME280;35209;51.050;13.678;2023-05-09T20:43:21;99629.91;;;13.94;47.96
49341;BME280;35209;51.050;13.678;2023-05-09T20:48:22;99629.38;;;14.04;47.66
49341;BME280;35209;51.050;13.678;2023-05-09T20:53:24;99621.59;;;14.01;47.73
49341;BME280;35209;51.050;13.678;2023-05-09T20:58:31;99616.84;;;14.08;47.74
49341;BME280;35209;51.050;13.678;2023-05-09T21:03:33;99611.25;;;13.97;47.69
49341;BME280;35209;51.050;13.678;2023-05-09T21:08:34;99599.22;;;14.08;47.98
49341;BME280;35209;51.050;13.678;2023-05-09T21:13:36;99590.56;;;14.05;47.33
49341;BME280;35209;51.050;13.678;2023-05-09T21:18:38;99592.97;;;14.09;47.09
49341;BME280;35209;51.050;13.678;2023-05-09T21:23:39;99582.56;;;14.06;47.18
49341;BME280;35209;51.050;13.678;2023-05-09T21:28:41;99571.78;;;13.94;48.03
49341;BME280;35209;51.050;13.678;2023-05-09T21:33:42;99579.16;;;14.04;47.33
49341;BME280;35209;51.050;13.678;2023-05-09T21:38:44;99561.75;;;14.00;47.77
49341;BME280;35209;51.050;13.678;2023-05-09T21:43:46;99583.84;;;13.99;47.33
49341;BME280;35209;51.050;13.678;2023-05-09T21:48:47;99565.38;;;13.82;48.20
49341;BME280;35209;51.050;13.678;2023-05-09T21:53:49;99564.66;;;13.96;48.58
49341;BME280;35209;51.050;13.678;2023-05-09T21:58:51;99572.63;;;13.94;48.05
49341;BME280;35209;51.050;13.678;2023-05-09T22:03:52;99562.56;;;13.85;48.51
49341;BME280;35209;51.050;13.678;2023-05-09T22:08:54;99558.94;;;13.70;48.65
49341;BME280;35209;51.050;13.678;2023-05-09T22:13:56;99552.41;;;13.77;48.59
49341;BME280;35209;51.050;13.678;2023-05-09T22:18:57;99556.63;;;13.64;49.39
49341;BME280;35209;51.050;13.678;2023-05-09T22:23:59;99549.78;;;13.60;49.30
49341;BME280;35209;51.050;13.678;2023-05-09T22:29:01;99546.31;;;13.59;49.44
49341;BME280;35209;51.050;13.678;2023-05-09T22:34:02;99543.56;;;13.61;49.47
49341;BME280;35209;51.050;13.678;2023-05-09T22:39:04;99536.28;;;13.49;49.79
49341;BME280;35209;51.050;13.678;2023-05-09T22:44:06;99532.22;;;13.59;49.64
49341;BME280;35209;51.050;13.678;2023-05-09T22:49:08;99534.50;;;13.49;49.94
49341;BME280;35209;51.050;13.678;2023-05-09T22:54:09;99526.03;;;13.43;50.06
49341;BME280;35209;51.050;13.678;2023-05-09T22:59:12;99508.25;;;13.46;49.70
49341;BME280;35209;51.050;13.678;2023-05-09T23:04:13;99518.50;;;13.35;50.12
49341;BME280;35209;51.050;13.678;2023-05-09T23:09:15;99500.88;;;13.35;50.54
49341;BME280;35209;51.050;13.678;2023-05-09T23:14:17;99506.94;;;13.20;50.70
49341;BME280;35209;51.050;13.678;2023-05-09T23:19:18;99502.81;;;13.32;50.12
49341;BME280;35209;51.050;13.678;2023-05-09T23:24:20;99502.66;;;13.18;50.81
49341;BME280;35209;51.050;13.678;2023-05-09T23:29:22;99494.97;;;13.13;50.60
49341;BME280;35209;51.050;13.678;2023-05-09T23:34:23;99497.22;;;13.03;51.04
49341;BME280;35209;51.050;13.678;2023-05-09T23:39:25;99479.13;;;12.96;51.22
49341;BME280;35209;51.050;13.678;2023-05-09T23:44:27;99479.97;;;12.96;51.14
49341;BME280;35209;51.050;13.678;2023-05-09T23:49:28;99471.91;;;12.99;51.00
49341;BME280;35209;51.050;13.678;2023-05-09T23:54:30;99476.72;;;12.91;51.45
49341;BME280;35209;51.050;13.678;2023-05-09T23:59:32;99473.69;;;12.81;51.63
